Time;durP1;ratioP1;P1;durP2;ratioP2;P2;SDS_P1;SDS_P2;PMS_P1;PMS_P2;Temp;Humidity;BMP_temperature;BMP_pressure;BME280_temperature;BME280_humidity;BME280_pressure;Samples;Min_cycle;Max_cycle;Signal;HPM_P1;HPM_P2
2021/11/24 00:01:34;;;;;;;26.37;16.80;;;9.70;99.90;;;;;;5075028;28;20430;-49
2021/11/24 00:04:01;;;;;;;23.23;15.63;;;9.40;99.90;;;;;;5074928;28;20408;-50
2021/11/24 00:06:27;;;;;;;27.33;16.17;;;9.40;99.90;;;;;;5074916;28;20433;-50
2021/11/24 00:08:54;;;;;;;27.00;15.80;;;9.70;99.90;;;;;;5074616;28;20934;-50
2021/11/24 00:11:20;;;;;;;22.47;15.30;;;9.60;99.90;;;;;;5074900;28;20918;-49
2021/11/24 00:13:47;;;;;;;23.23;16.57;;;9.20;99.90;;;;;;5075076;28;20783;-50
2021/11/24 00:16:15;;;;;;;23.20;14.73;;;9.20;99.90;;;;;;5074847;28;20494;-50
2021/11/24 00:18:42;;;;;;;24.80;15.30;;;9.40;99.90;;;;;;5074248;28;20429;-51
2021/11/24 00:21:08;;;;;;;22.43;15.23;;;9.50;99.90;;;;;;5074660;28;20396;-51
2021/11/24 00:23:36;;;;;;;24.13;14.90;;;9.90;99.90;;;;;;5074583;28;20440;-51
2021/11/24 00:26:03;;;;;;;24.20;14.33;;;9.80;99.90;;;;;;5074582;28;20429;-51
2021/11/24 00:28:30;;;;;;;23.90;15.40;;;9.50;99.90;;;;;;5074306;28;20433;-51
2021/11/24 00:30:57;;;;;;;23.87;14.63;;;9.50;99.90;;;;;;5073078;28;20538;-49
2021/11/24 00:33:26;;;;;;;18.63;13.57;;;9.50;99.90;;;;;;5072865;28;20469;-49
2021/11/24 00:35:53;;;;;;;30.40;17.00;;;9.30;99.90;;;;;;5074405;28;20479;-50
2021/11/24 00:38:20;;;;;;;20.13;12.97;;;9.60;99.90;;;;;;5074113;28;20448;-49
2021/11/24 00:40:46;;;;;;;21.63;13.07;;;9.40;99.90;;;;;;5074555;28;20405;-50
2021/11/24 00:43:13;;;;;;;21.53;13.90;;;9.40;99.90;;;;;;5074311;28;20463;-50
2021/11/24 00:45:40;;;;;;;19.20;12.40;;;9.30;99.90;;;;;;5074543;28;20771;-50
2021/11/24 00:48:06;;;;;;;23.00;13.33;;;9.60;99.90;;;;;;5073764;28;20433;-50
2021/11/24 00:50:34;;;;;;;17.07;11.97;;;9.50;99.90;;;;;;5074136;28;20452;-50
2021/11/24 00:53:01;;;;;;;19.10;13.37;;;9.40;99.90;;;;;;5073018;28;20519;-50
2021/11/24 00:55:28;;;;;;;20.80;14.17;;;9.60;99.90;;;;;;5072889;28;20442;-51
2021/11/24 00:57:55;;;;;;;17.53;13.40;;;9.50;99.90;;;;;;5074057;28;20821;-49
2021/11/24 01:00:22;;;;;;;19.53;12.90;;;9.50;99.90;;;;;;5073816;28;20434;-50
2021/11/24 01:02:49;;;;;;;15.57;11.83;;;9.80;99.90;;;;;;5073844;28;20428;-50
2021/11/24 01:05:15;;;;;;;20.63;14.00;;;9.40;99.90;;;;;;5073915;28;20434;-50
2021/11/24 01:07:43;;;;;;;21.97;12.87;;;9.50;99.90;;;;;;5073686;28;20416;-50
2021/11/24 01:10:11;;;;;;;21.80;12.63;;;9.50;99.90;;;;;;5074202;28;21027;-51
2021/11/24 01:12:38;;;;;;;19.73;12.23;;;9.30;99.90;;;;;;5073754;28;21005;-50
2021/11/24 01:15:06;;;;;;;19.07;12.40;;;9.60;99.90;;;;;;5073671;28;20918;-50
2021/11/24 01:17:32;;;;;;;22.57;12.80;;;9.40;99.90;;;;;;5073624;28;20430;-50
2021/11/24 01:19:59;;;;;;;20.50;12.60;;;9.40;99.90;;;;;;5073441;28;20405;-50
2021/11/24 01:22:26;;;;;;;18.87;13.57;;;9.50;99.90;;;;;;5073607;28;20431;-50
2021/11/24 01:24:54;;;;;;;20.50;13.40;;;9.50;99.90;;;;;;5073530;28;20412;-50
2021/11/24 01:27:20;;;;;;;18.87;12.03;;;9.70;99.90;;;;;;5073606;28;20400;-50
2021/11/24 01:29:47;;;;;;;18.13;12.87;;;9.40;99.90;;;;;;5073291;28;20538;-50
2021/11/24 01:32:13;;;;;;;18.03;11.90;;;9.60;99.90;;;;;;5073529;28;20464;-50
2021/11/24 01:34:40;;;;;;;21.07;14.40;;;9.50;99.90;;;;;;5073546;28;20444;-50
2021/11/24 01:37:07;;;;;;;22.70;12.10;;;8.90;99.90;;;;;;5073652;28;20438;-50
2021/11/24 01:39:33;;;;;;;23.80;13.47;;;9.30;99.90;;;;;;5073155;28;20821;-50
2021/11/24 01:42:01;;;;;;;19.63;13.07;;;9.60;99.90;;;;;;5073204;28;20468;-50
2021/11/24 01:44:29;;;;;;;16.50;13.10;;;9.00;99.90;;;;;;5073201;28;20438;-50
2021/11/24 01:46:57;;;;;;;21.00;12.40;;;9.50;99.90;;;;;;5073384;28;20472;-50
2021/11/24 01:49:25;;;;;;;18.43;12.10;;;9.60;99.90;;;;;;5071670;28;20438;-50
2021/11/24 01:51:53;;;;;;;17.13;11.90;;;9.20;99.90;;;;;;5072999;28;20407;-51
2021/11/24 01:54:20;;;;;;;15.87;11.07;;;9.50;99.90;;;;;;5073188;28;20445;-50
2021/11/24 01:56:47;;;;;;;18.00;11.80;;;9.60;99.90;;;;;;5073085;28;20426;-50
2021/11/24 01:59:15;;;;;;;13.80;10.60;;;9.20;99.90;;;;;;5072502;28;20495;-50
2021/11/24 02:01:44;;;;;;;17.27;9.97;;;9.60;99.90;;;;;;5072876;28;20444;-49
2021/11/24 02:04:11;;;;;;;17.13;11.43;;;9.50;99.90;;;;;;5071579;28;20475;-50
2021/11/24 02:06:38;;;;;;;17.57;10.70;;;9.50;99.90;;;;;;5073110;28;20430;-50
2021/11/24 02:09:06;;;;;;;15.00;10.37;;;9.60;99.90;;;;;;5071169;28;20445;-50
2021/11/24 02:11:36;;;;;;;17.80;10.77;;;9.30;99.90;;;;;;5072703;28;20988;-50
2021/11/24 02:14:03;;;;;;;17.43;11.40;;;9.70;99.90;;;;;;5072668;28;20440;-49
2021/11/24 02:16:31;;;;;;;19.87;12.30;;;9.50;99.90;;;;;;5072573;28;20434;-50
2021/11/24 02:18:57;;;;;;;17.70;11.20;;;9.40;99.90;;;;;;5072114;28;20411;-50
2021/11/24 02:21:25;;;;;;;18.50;11.07;;;9.30;99.90;;;;;;5072301;28;20434;-50
2021/11/24 02:23:52;;;;;;;15.37;10.80;;;9.50;99.90;;;;;;5072203;28;20449;-50
2021/11/24 02:26:21;;;;;;;12.17;10.13;;;9.40;99.90;;;;;;5072339;28;20446;-50
2021/11/24 02:28:48;;;;;;;14.10;10.97;;;9.50;99.90;;;;;;5071862;28;20430;-50
2021/11/24 02:31:20;;;;;;;16.40;10.17;;;8.90;99.90;;;;;;5072028;28;20996;-50
2021/11/24 02:33:50;;;;;;;14.80;9.30;;;9.50;99.90;;;;;;5072168;28;20799;-50
2021/11/24 02:36:17;;;;;;;13.63;9.03;;;9.30;99.90;;;;;;5072179;28;20434;-50
2021/11/24 02:38:45;;;;;;;16.77;9.87;;;9.10;99.90;;;;;;5071996;28;20428;-50
2021/11/24 02:41:12;;;;;;;14.60;9.37;;;9.80;99.90;;;;;;5072015;28;20430;-50
2021/11/24 02:43:39;;;;;;;15.23;10.53;;;9.60;99.90;;;;;;5071967;28;20907;-50
2021/11/24 02:46:06;;;;;;;14.83;10.63;;;9.30;99.90;;;;;;5072362;28;20441;-50
2021/11/24 02:48:32;;;;;;;14.17;10.13;;;9.30;99.90;;;;;;5071585;28;20426;-50
2021/11/24 02:50:59;;;;;;;20.43;11.60;;;9.50;99.90;;;;;;5072114;28;20913;-50
2021/11/24 02:53:26;;;;;;;15.20;9.87;;;9.30;99.90;;;;;;5072225;28;20974;-50
2021/11/24 02:55:55;;;;;;;15.63;9.90;;;9.70;99.90;;;;;;5074590;28;20966;-50
2021/11/24 02:58:22;;;;;;;14.70;10.07;;;9.30;99.90;;;;;;5071889;28;20422;-49
2021/11/24 03:00:49;;;;;;;13.20;9.43;;;9.60;99.90;;;;;;5071950;28;20434;-50
2021/11/24 03:03:16;;;;;;;14.20;9.83;;;9.00;99.90;;;;;;5072123;28;20453;-49
2021/11/24 03:05:43;;;;;;;15.33;10.63;;;9.30;99.90;;;;;;5071857;28;20438;-50
2021/11/24 03:08:10;;;;;;;18.40;10.63;;;9.40;99.90;;;;;;5070161;28;20437;-50
2021/11/24 03:10:38;;;;;;;13.33;9.43;;;9.30;99.90;;;;;;5070734;28;20505;-49
2021/11/24 03:13:09;;;;;;;14.93;10.60;;;9.40;99.90;;;;;;5071691;28;20450;-50
2021/11/24 03:15:36;;;;;;;14.07;9.87;;;9.30;99.90;;;;;;5069741;28;20888;-50
2021/11/24 03:18:05;;;;;;;12.70;9.63;;;9.30;99.90;;;;;;5072030;28;20968;-50
2021/11/24 03:20:32;;;;;;;11.40;9.37;;;9.30;99.90;;;;;;5070460;28;20433;-50
2021/11/24 03:23:00;;;;;;;18.10;10.33;;;9.40;99.90;;;;;;5070280;28;20536;-49
2021/11/24 03:25:27;;;;;;;13.83;9.20;;;9.40;99.90;;;;;;5070334;28;20483;-50
2021/11/24 03:27:54;;;;;;;13.13;9.23;;;9.30;99.90;;;;;;5069920;28;20464;-49
2021/11/24 03:30:25;;;;;;;11.70;8.93;;;9.30;99.90;;;;;;5071413;28;20495;-49
2021/11/24 03:32:55;;;;;;;13.40;9.30;;;9.20;99.90;;;;;;5071518;28;20476;-50
2021/11/24 03:35:23;;;;;;;15.23;10.47;;;9.50;99.90;;;;;;5070208;28;20479;-50
2021/11/24 03:37:52;;;;;;;15.60;10.17;;;9.10;99.90;;;;;;5069728;28;20450;-50
2021/11/24 03:40:21;;;;;;;14.00;10.07;;;9.20;99.90;;;;;;5072291;28;20880;-49
2021/11/24 03:42:49;;;;;;;15.27;9.23;;;9.30;99.90;;;;;;5070755;28;20851;-49
2021/11/24 03:45:20;;;;;;;12.33;9.30;;;9.20;99.90;;;;;;5087828;28;20969;-50
2021/11/24 03:47:51;;;;;;;13.77;9.77;;;9.20;99.90;;;;;;5071072;28;20425;-50
2021/11/24 03:50:19;;;;;;;11.00;8.80;;;9.20;99.90;;;;;;5071508;28;20893;-49
2021/11/24 03:52:47;;;;;;;12.83;8.80;;;9.20;99.90;;;;;;5069895;28;20997;-49
2021/11/24 03:55:15;;;;;;;16.53;10.30;;;9.30;99.90;;;;;;5071064;28;20844;-49
2021/11/24 03:57:43;;;;;;;14.87;9.13;;;9.20;99.90;;;;;;5071009;28;20950;-50
2021/11/24 04:00:15;;;;;;;15.03;8.77;;;9.00;99.90;;;;;;5069860;28;20461;-50
2021/11/24 04:02:42;;;;;;;13.40;9.50;;;9.20;99.90;;;;;;5071298;28;20449;-49
2021/11/24 04:05:12;;;;;;;13.60;9.50;;;9.60;99.90;;;;;;5071188;28;20433;-50
2021/11/24 04:07:42;;;;;;;16.07;9.10;;;9.20;99.90;;;;;;5070764;28;20472;-50
2021/11/24 04:10:11;;;;;;;14.97;9.80;;;9.10;99.90;;;;;;5071121;28;20488;-50
2021/11/24 04:12:41;;;;;;;12.57;9.07;;;9.10;99.90;;;;;;5071180;28;20447;-50
2021/11/24 04:15:10;;;;;;;13.57;9.80;;;9.10;99.90;;;;;;5069778;28;20465;-50
2021/11/24 04:17:37;;;;;;;16.10;8.80;;;9.30;99.90;;;;;;5070915;28;20426;-50
2021/11/24 04:20:06;;;;;;;14.30;8.60;;;9.40;99.90;;;;;;5071024;28;20448;-50
2021/11/24 04:22:35;;;;;;;13.40;7.97;;;9.10;99.90;;;;;;5070758;28;20446;-50
2021/11/24 04:25:02;;;;;;;11.57;8.57;;;9.00;99.90;;;;;;5071209;28;20458;-50
2021/11/24 04:27:29;;;;;;;14.63;8.80;;;9.20;99.90;;;;;;5069987;28;20457;-50
2021/11/24 04:29:56;;;;;;;11.43;7.20;;;9.20;99.90;;;;;;5072789;28;20451;-50
2021/11/24 04:32:24;;;;;;;14.20;8.50;;;9.10;99.90;;;;;;5073118;28;20452;-50
2021/11/24 04:34:51;;;;;;;12.37;8.23;;;9.30;99.90;;;;;;5072994;28;20449;-50
2021/11/24 04:37:18;;;;;;;11.33;8.53;;;9.10;99.90;;;;;;5074549;28;20430;-50
2021/11/24 04:39:47;;;;;;;12.63;7.93;;;9.30;99.90;;;;;;5073013;28;20464;-50
2021/11/24 04:42:14;;;;;;;13.83;8.77;;;9.10;99.90;;;;;;5074642;28;20457;-49
2021/11/24 04:44:41;;;;;;;13.10;8.17;;;9.00;99.90;;;;;;5072926;28;20532;-51
2021/11/24 04:47:08;;;;;;;11.47;7.47;;;9.10;99.90;;;;;;5072894;28;20428;-51
2021/11/24 04:49:35;;;;;;;11.17;7.80;;;9.10;99.90;;;;;;5073719;28;20430;-50
2021/11/24 04:52:03;;;;;;;12.33;8.30;;;9.20;99.90;;;;;;5074352;28;20481;-52
2021/11/24 04:54:30;;;;;;;13.50;8.30;;;9.10;99.90;;;;;;5072950;28;20478;-53
2021/11/24 04:56:58;;;;;;;12.10;8.63;;;9.70;99.90;;;;;;5072747;28;20499;-52
2021/11/24 04:59:25;;;;;;;11.80;8.80;;;9.20;99.90;;;;;;5073630;28;20443;-53
2021/11/24 05:01:52;;;;;;;15.40;8.90;;;9.00;99.90;;;;;;5073996;28;20438;-51
2021/11/24 05:04:21;;;;;;;12.00;9.70;;;9.40;99.90;;;;;;5074055;28;20487;-52
2021/11/24 05:06:48;;;;;;;13.00;8.20;;;9.40;99.90;;;;;;5073983;28;20439;-52
2021/11/24 05:09:15;;;;;;;16.43;8.30;;;9.30;99.90;;;;;;5073538;28;20434;-52
2021/11/24 05:11:42;;;;;;;19.30;8.10;;;9.10;99.90;;;;;;5072332;28;20595;-53
2021/11/24 05:14:16;;;;;;;13.83;9.50;;;9.10;99.90;;;;;;5073753;28;20434;-52
2021/11/24 05:16:48;;;;;;;10.63;7.67;;;9.40;99.90;;;;;;5073886;28;20449;-52
2021/11/24 05:19:18;;;;;;;13.90;8.93;;;9.30;99.90;;;;;;5072012;28;20445;-52
2021/11/24 05:21:49;;;;;;;11.40;8.43;;;9.10;99.90;;;;;;5071945;28;20457;-52
2021/11/24 05:24:17;;;;;;;9.83;7.77;;;9.10;99.90;;;;;;5073534;28;20536;-52
2021/11/24 05:26:45;;;;;;;18.30;9.23;;;9.20;99.90;;;;;;5072110;28;20586;-51
2021/11/24 05:29:13;;;;;;;14.07;9.10;;;9.10;99.90;;;;;;5072686;28;20471;-53
2021/11/24 05:31:41;;;;;;;12.80;8.70;;;9.30;99.90;;;;;;5071195;28;20528;-54
2021/11/24 05:34:08;;;;;;;13.40;9.27;;;9.10;99.90;;;;;;5071874;28;21004;-53
2021/11/24 05:36:35;;;;;;;15.00;9.67;;;9.20;99.90;;;;;;5073169;28;20437;-52
2021/11/24 05:39:06;;;;;;;12.50;9.60;;;9.30;99.90;;;;;;5070974;28;20446;-53
2021/11/24 05:41:38;;;;;;;13.33;8.47;;;9.10;99.90;;;;;;5072996;28;20412;-53
2021/11/24 05:44:16;;;;;;;14.23;8.50;;;9.10;99.90;;;;;;5088543;28;20876;-53
2021/11/24 05:46:48;;;;;;;11.80;9.27;;;9.10;99.90;;;;;;5073026;28;20475;-53
2021/11/24 05:49:16;;;;;;;12.50;8.67;;;9.30;99.90;;;;;;5071084;28;20424;-52
2021/11/24 05:51:43;;;;;;;12.23;9.03;;;9.00;99.90;;;;;;5071208;28;20547;-53
2021/11/24 05:54:10;;;;;;;12.10;8.93;;;9.00;99.90;;;;;;5072447;28;20430;-54
2021/11/24 05:56:38;;;;;;;14.33;9.37;;;9.30;99.90;;;;;;5071027;28;20900;-51
2021/11/24 05:59:09;;;;;;;15.50;9.47;;;9.10;99.90;;;;;;5072226;28;20405;-52
2021/11/24 06:01:37;;;;;;;15.87;9.70;;;9.20;99.90;;;;;;5072666;28;20458;-52
2021/11/24 06:04:08;;;;;;;13.60;9.70;;;9.10;99.90;;;;;;5072813;28;20434;-53
2021/11/24 06:06:36;;;;;;;13.47;9.40;;;9.20;99.90;;;;;;5072379;28;20404;-54
2021/11/24 06:09:06;;;;;;;12.07;8.60;;;9.10;99.90;;;;;;5070907;28;20499;-54
2021/11/24 06:11:34;;;;;;;10.87;8.87;;;9.00;99.90;;;;;;5072483;28;20502;-51
2021/11/24 06:14:01;;;;;;;13.03;8.00;;;9.00;99.90;;;;;;5070908;28;21007;-52
2021/11/24 06:16:29;;;;;;;14.37;8.60;;;9.10;99.90;;;;;;5070544;28;20439;-52
2021/11/24 06:18:56;;;;;;;14.50;9.17;;;9.10;99.90;;;;;;5070600;28;20416;-52
2021/11/24 06:21:24;;;;;;;15.50;9.50;;;9.00;99.90;;;;;;5071315;28;20438;-53
2021/11/24 06:23:52;;;;;;;16.20;10.37;;;9.10;99.90;;;;;;5071971;28;20472;-52
2021/11/24 06:26:22;;;;;;;16.67;11.20;;;9.30;99.90;;;;;;5072698;28;20442;-53
2021/11/24 06:28:50;;;;;;;13.87;10.07;;;9.00;99.90;;;;;;5070284;28;20420;-52
2021/11/24 06:31:19;;;;;;;11.40;7.67;;;9.00;99.90;;;;;;5071939;28;20474;-52
2021/11/24 06:33:47;;;;;;;16.23;8.27;;;9.00;99.90;;;;;;5071968;28;20442;-51
2021/11/24 06:36:14;;;;;;;17.57;9.93;;;9.20;99.90;;;;;;5071282;28;20416;-53
2021/11/24 06:38:42;;;;;;;11.77;9.17;;;9.10;99.90;;;;;;5069762;28;20461;-54
2021/11/24 06:41:09;;;;;;;14.80;9.63;;;9.20;99.90;;;;;;5071591;28;20492;-53
2021/11/24 06:43:36;;;;;;;13.13;9.43;;;9.00;99.90;;;;;;5070873;28;20482;-52
2021/11/24 06:46:03;;;;;;;13.27;9.80;;;9.40;99.90;;;;;;5071160;28;20454;-55
2021/11/24 06:48:31;;;;;;;13.20;10.40;;;9.20;99.90;;;;;;5070380;28;20430;-51
2021/11/24 06:50:58;;;;;;;21.87;14.03;;;9.40;99.90;;;;;;5070262;28;20499;-51
2021/11/24 06:53:25;;;;;;;18.80;13.73;;;9.40;99.90;;;;;;5070953;28;20435;-49
2021/11/24 06:55:54;;;;;;;16.97;12.30;;;9.30;99.90;;;;;;5071011;28;20442;-50
2021/11/24 06:58:21;;;;;;;16.53;10.97;;;9.20;99.90;;;;;;5069541;28;20458;-52
2021/11/24 07:00:48;;;;;;;17.07;11.53;;;9.20;99.90;;;;;;5071128;28;20415;-48
2021/11/24 07:03:15;;;;;;;15.57;11.00;;;9.40;99.90;;;;;;5069528;28;20436;-51
2021/11/24 07:05:44;;;;;;;18.70;13.40;;;9.30;99.90;;;;;;5071010;28;20408;-49
2021/11/24 07:08:11;;;;;;;16.60;11.73;;;9.30;99.90;;;;;;5070939;28;20483;-51
2021/11/24 07:10:38;;;;;;;18.07;12.23;;;9.20;99.90;;;;;;5071322;28;20412;-49
2021/11/24 07:13:07;;;;;;;18.40;12.70;;;9.30;99.90;;;;;;5070932;28;20463;-51
2021/11/24 07:15:36;;;;;;;14.73;11.33;;;9.30;99.90;;;;;;5071161;28;20467;-50
2021/11/24 07:18:05;;;;;;;17.77;13.13;;;9.30;99.90;;;;;;5070545;28;20465;-51
2021/11/24 07:20:32;;;;;;;18.50;14.60;;;9.40;99.90;;;;;;5070762;28;20902;-50
2021/11/24 07:22:59;;;;;;;20.20;16.00;;;9.50;99.90;;;;;;5070710;28;20464;-52
2021/11/24 07:25:28;;;;;;;20.53;14.80;;;9.30;99.90;;;;;;5071318;28;20408;-50
2021/11/24 07:27:57;;;;;;;21.13;15.60;;;9.30;99.90;;;;;;5070539;28;20432;-50
2021/11/24 07:30:26;;;;;;;19.13;14.07;;;9.30;99.90;;;;;;5070870;28;20434;-50
2021/11/24 07:32:54;;;;;;;17.47;12.67;;;9.40;99.90;;;;;;5070611;28;20456;-52
2021/11/24 07:35:21;;;;;;;18.30;12.33;;;9.40;99.90;;;;;;5070506;28;20480;-50
2021/11/24 07:37:48;;;;;;;16.57;12.00;;;9.60;99.90;;;;;;5068986;28;20503;-49
2021/11/24 07:40:16;;;;;;;15.13;11.20;;;9.60;99.90;;;;;;5070408;28;20419;-49
2021/11/24 07:42:45;;;;;;;14.37;11.40;;;9.50;99.90;;;;;;5070461;28;20536;-50
2021/11/24 07:45:12;;;;;;;14.43;12.10;;;9.70;99.90;;;;;;5070616;28;20495;-51
2021/11/24 07:47:40;;;;;;;13.10;10.43;;;9.50;99.90;;;;;;5069993;28;20926;-51
2021/11/24 07:50:08;;;;;;;20.03;11.20;;;9.50;99.90;;;;;;5069453;28;20486;-50
2021/11/24 07:52:35;;;;;;;15.00;11.03;;;9.50;99.90;;;;;;5052412;28;20968;-49
2021/11/24 07:55:03;;;;;;;13.60;10.77;;;9.70;99.90;;;;;;5069441;28;20820;-49
2021/11/24 07:57:30;;;;;;;13.17;10.60;;;9.60;99.90;;;;;;5069364;28;20428;-50
2021/11/24 07:59:57;;;;;;;18.90;11.97;;;9.40;99.90;;;;;;5068894;28;20798;-50
2021/11/24 08:02:24;;;;;;;16.37;12.20;;;9.70;99.90;;;;;;5071788;28;20453;-50
2021/11/24 08:04:53;;;;;;;16.43;10.67;;;9.70;99.90;;;;;;5074442;28;20430;-50
2021/11/24 08:07:22;;;;;;;14.13;10.50;;;9.70;99.90;;;;;;5072473;28;20452;-51
2021/11/24 08:09:52;;;;;;;18.17;11.43;;;9.90;99.90;;;;;;5073717;28;20450;-50
2021/11/24 08:12:19;;;;;;;15.00;12.17;;;9.70;99.90;;;;;;5072662;28;20506;-51
2021/11/24 08:14:46;;;;;;;17.17;12.33;;;9.70;99.90;;;;;;5073966;28;20858;-48
2021/11/24 08:17:13;;;;;;;16.77;13.53;;;9.70;99.90;;;;;;5072152;28;20445;-50
2021/11/24 08:19:40;;;;;;;14.80;11.47;;;10.00;99.90;;;;;;5072190;28;20420;-50
2021/11/24 08:22:08;;;;;;;21.40;12.50;;;9.80;99.90;;;;;;5073711;28;20456;-50
2021/11/24 08:24:35;;;;;;;17.50;12.80;;;9.80;99.90;;;;;;5055817;28;20972;-50
2021/11/24 08:27:03;;;;;;;19.93;12.10;;;10.00;99.90;;;;;;5073721;28;20409;-48
2021/11/24 08:29:32;;;;;;;21.47;12.57;;;9.90;99.90;;;;;;5073340;28;20731;-49
2021/11/24 08:31:59;;;;;;;15.43;11.63;;;9.80;99.90;;;;;;5073794;28;20559;-50
2021/11/24 08:34:27;;;;;;;16.33;12.20;;;9.80;99.90;;;;;;5072572;28;21020;-49
2021/11/24 08:36:54;;;;;;;16.57;12.00;;;9.90;99.90;;;;;;5073403;28;20818;-50
2021/11/24 08:39:25;;;;;;;15.90;12.40;;;10.00;99.90;;;;;;5073261;28;20538;-49
2021/11/24 08:41:52;;;;;;;17.37;11.90;;;9.90;99.90;;;;;;5073501;28;20434;-49
2021/11/24 08:44:19;;;;;;;14.60;11.33;;;10.00;99.90;;;;;;5071607;28;20506;-50
2021/11/24 08:46:46;;;;;;;16.07;11.70;;;10.00;99.90;;;;;;5073510;28;20457;-49
2021/11/24 08:49:14;;;;;;;17.07;11.27;;;10.00;99.90;;;;;;5072074;28;20477;-51
2021/11/24 08:51:41;;;;;;;12.23;9.80;;;10.10;99.90;;;;;;5073380;28;20968;-51
2021/11/24 08:54:11;;;;;;;15.20;10.17;;;10.20;99.90;;;;;;5073697;28;20812;-49
2021/11/24 08:56:43;;;;;;;14.10;10.77;;;10.40;99.90;;;;;;5073688;28;20401;-49
2021/11/24 08:59:11;;;;;;;14.50;11.20;;;10.00;99.90;;;;;;5071768;28;20557;-49
2021/11/24 09:01:38;;;;;;;15.17;10.87;;;10.10;99.90;;;;;;5072098;28;20513;-51
2021/11/24 09:04:06;;;;;;;15.10;10.83;;;10.30;99.90;;;;;;5073638;28;20750;-51
2021/11/24 09:06:34;;;;;;;15.30;10.83;;;10.50;99.90;;;;;;5071787;28;20456;-50
2021/11/24 09:09:05;;;;;;;14.20;9.83;;;10.20;99.90;;;;;;5072860;28;20503;-51
2021/11/24 09:11:32;;;;;;;15.77;10.63;;;10.30;99.90;;;;;;5072493;28;20454;-50
2021/11/24 09:14:00;;;;;;;13.43;9.40;;;10.20;99.90;;;;;;5071029;28;20543;-49
2021/11/24 09:16:28;;;;;;;15.83;10.47;;;10.10;99.90;;;;;;5073237;28;20938;-50
2021/11/24 09:18:55;;;;;;;14.70;10.63;;;10.20;99.90;;;;;;5072689;28;20433;-49
2021/11/24 09:21:23;;;;;;;10.73;8.97;;;10.00;99.90;;;;;;5071772;28;20428;-49
2021/11/24 09:23:50;;;;;;;13.83;10.00;;;10.10;99.90;;;;;;5073018;28;20461;-51
2021/11/24 09:26:20;;;;;;;15.20;9.90;;;10.00;99.90;;;;;;5073107;28;20453;-49
2021/11/24 09:28:48;;;;;;;14.60;10.30;;;10.10;99.90;;;;;;5071347;28;20548;-50
2021/11/24 09:31:19;;;;;;;14.30;10.40;;;10.20;99.90;;;;;;5073051;28;20928;-49
2021/11/24 09:33:47;;;;;;;14.20;9.93;;;10.00;99.90;;;;;;5071373;28;20990;-51
2021/11/24 09:36:14;;;;;;;16.03;11.27;;;10.10;99.90;;;;;;5072734;28;20529;-49
2021/11/24 09:38:41;;;;;;;14.63;10.60;;;10.10;99.90;;;;;;5072724;28;20501;-49
2021/11/24 09:41:11;;;;;;;22.80;11.40;;;10.30;99.90;;;;;;5072237;28;20438;-49
2021/11/24 09:43:41;;;;;;;17.93;10.27;;;10.20;99.90;;;;;;5071604;28;20462;-50
2021/11/24 09:46:09;;;;;;;19.60;12.77;;;10.30;99.90;;;;;;5071171;28;20476;-49
2021/11/24 09:48:41;;;;;;;16.23;11.20;;;10.20;99.90;;;;;;5070846;28;20442;-48
2021/11/24 09:51:08;;;;;;;17.83;10.73;;;10.30;99.90;;;;;;5072153;28;20424;-50
2021/11/24 09:53:35;;;;;;;17.77;11.50;;;10.30;99.90;;;;;;5070621;28;20481;-50
2021/11/24 09:56:03;;;;;;;16.73;10.87;;;10.70;99.90;;;;;;5071052;28;20445;-49
2021/11/24 09:58:30;;;;;;;16.00;11.00;;;10.30;99.90;;;;;;5071812;28;20462;-49
2021/11/24 10:00:58;;;;;;;14.70;10.70;;;10.60;99.90;;;;;;5072322;28;20434;-51
2021/11/24 10:03:25;;;;;;;17.13;11.93;;;10.50;99.90;;;;;;5072415;28;20424;-51
2021/11/24 10:05:54;;;;;;;17.93;11.73;;;10.50;99.90;;;;;;5072164;28;20415;-49
2021/11/24 10:08:22;;;;;;;15.80;11.20;;;10.50;99.90;;;;;;5071527;28;20440;-51
2021/11/24 10:10:49;;;;;;;13.83;10.70;;;10.60;99.90;;;;;;5072023;28;20515;-50
2021/11/24 10:13:16;;;;;;;16.17;10.77;;;10.80;99.90;;;;;;5071723;28;20607;-50
2021/11/24 10:15:46;;;;;;;15.73;10.67;;;10.60;99.90;;;;;;5070715;28;20982;-50
2021/11/24 10:18:23;;;;;;;14.70;10.10;;;10.70;99.90;;;;;;5070019;28;20450;-50
2021/11/24 10:20:56;;;;;;;10.77;8.53;;;10.70;99.90;;;;;;5071777;28;20404;-50
2021/11/24 10:23:43;;;;;;;13.50;10.03;;;10.70;99.90;;;;;;5071747;28;20777;-51
2021/11/24 10:26:27;;;;;;;16.10;11.07;;;10.70;99.90;;;;;;5070176;28;20454;-50
2021/11/24 10:28:59;;;;;;;15.57;11.13;;;10.80;99.90;;;;;;5069837;28;20928;-50
2021/11/24 10:31:36;;;;;;;13.77;10.70;;;10.70;99.90;;;;;;5070096;28;20850;-50
2021/11/24 10:34:12;;;;;;;15.30;10.30;;;10.70;99.90;;;;;;5053221;28;20954;-51
2021/11/24 10:37:06;;;;;;;13.47;10.50;;;10.60;99.90;;;;;;5067687;28;20924;-51
2021/11/24 10:39:36;;;;;;;16.13;10.90;;;10.70;99.90;;;;;;5071488;28;20463;-51
2021/11/24 10:42:10;;;;;;;16.93;12.03;;;10.70;99.90;;;;;;5070086;28;20470;-49
2021/11/24 10:44:38;;;;;;;17.67;11.10;;;10.90;99.90;;;;;;5071184;28;20886;-49
2021/11/24 10:47:07;;;;;;;12.50;9.10;;;10.60;99.90;;;;;;5071072;28;20425;-49
2021/11/24 10:49:42;;;;;;;13.37;9.53;;;10.40;99.90;;;;;;5070979;28;20433;-50
2021/11/24 10:52:26;;;;;;;15.10;9.70;;;10.60;99.90;;;;;;5096802;22;20781;-51
2021/11/24 10:55:07;;;;;;;15.27;10.50;;;10.60;99.90;;;;;;5069447;28;20566;-52
2021/11/24 10:57:37;;;;;;;13.90;9.93;;;10.70;99.90;;;;;;5071408;28;20449;-53
2021/11/24 11:00:21;;;;;;;14.00;10.00;;;10.50;99.90;;;;;;5070387;28;20450;-52
2021/11/24 11:02:50;;;;;;;17.17;11.50;;;10.60;99.90;;;;;;5071461;28;20472;-52
2021/11/24 11:05:19;;;;;;;15.80;10.30;;;10.50;99.90;;;;;;5071788;28;20897;-52
2021/11/24 11:08:03;;;;;;;11.87;10.13;;;10.40;99.90;;;;;;5056359;28;20450;-52
2021/11/24 11:10:32;;;;;;;17.93;11.57;;;10.50;99.90;;;;;;5066211;28;20493;-52
2021/11/24 11:13:01;;;;;;;17.30;10.20;;;10.50;99.90;;;;;;5071083;28;20484;-53
2021/11/24 11:15:34;;;;;;;13.07;10.23;;;10.40;99.90;;;;;;5065502;28;20764;-53
2021/11/24 11:18:13;;;;;;;14.23;10.63;;;10.50;99.90;;;;;;5050743;28;20466;-52
2021/11/24 11:20:44;;;;;;;15.53;10.27;;;10.50;99.90;;;;;;5051004;28;20954;-54
2021/11/24 11:23:15;;;;;;;14.80;9.10;;;10.40;99.90;;;;;;5049628;28;21056;-53
2021/11/24 11:25:44;;;;;;;14.23;9.27;;;10.30;99.90;;;;;;5050930;28;20423;-53
2021/11/24 11:28:13;;;;;;;12.07;9.30;;;10.50;99.90;;;;;;5050214;28;20938;-53
2021/11/24 11:30:43;;;;;;;14.33;9.17;;;10.40;99.90;;;;;;5050112;28;20421;-53
2021/11/24 11:33:13;;;;;;;11.80;9.90;;;10.40;99.90;;;;;;5061465;28;20531;-53
2021/11/24 11:35:41;;;;;;;16.90;9.90;;;10.60;99.90;;;;;;5070384;28;20471;-53
2021/11/24 11:38:08;;;;;;;9.60;8.30;;;10.40;99.90;;;;;;5071764;28;20457;-54
2021/11/24 11:40:38;;;;;;;13.57;8.87;;;10.60;99.90;;;;;;5073078;28;20574;-53
2021/11/24 11:43:07;;;;;;;13.40;7.97;;;10.60;99.90;;;;;;5073287;28;20462;-54
2021/11/24 11:45:35;;;;;;;12.43;9.00;;;10.70;99.90;;;;;;5074915;28;20426;-52
2021/11/24 11:48:06;;;;;;;11.20;8.37;;;10.70;99.90;;;;;;5074314;28;20544;-53
2021/11/24 11:50:54;;;;;;;12.20;9.10;;;10.50;99.90;;;;;;5074470;28;20422;-52
2021/11/24 11:53:24;;;;;;;10.40;7.50;;;10.70;99.90;;;;;;5073131;28;20831;-52
2021/11/24 11:56:12;;;;;;;13.43;9.17;;;10.70;99.90;;;;;;5072757;28;20606;-54
2021/11/24 11:58:51;;;;;;;15.63;10.47;;;10.70;99.90;;;;;;5072746;28;20858;-53
2021/11/24 12:01:20;;;;;;;12.20;10.40;;;10.70;99.90;;;;;;5074551;28;20494;-51
2021/11/24 12:04:07;;;;;;;10.77;8.93;;;10.80;99.90;;;;;;5072991;28;20980;-51
2021/11/24 12:06:38;;;;;;;10.67;6.73;;;10.70;99.90;;;;;;5074144;28;20438;-52
2021/11/24 12:09:28;;;;;;;9.77;7.30;;;10.70;99.90;;;;;;5072090;28;20456;-54
2021/11/24 12:12:16;;;;;;;10.77;7.33;;;10.70;99.90;;;;;;5053782;28;20958;-54
2021/11/24 12:14:55;;;;;;;10.17;7.10;;;10.80;99.90;;;;;;5052723;28;20486;-54
2021/11/24 12:17:48;;;;;;;8.70;6.97;;;10.70;99.90;;;;;;5052558;28;20500;-53
2021/11/24 12:20:41;;;;;;;14.60;7.87;;;11.00;99.90;;;;;;5052485;28;20430;-52
2021/11/24 12:23:20;;;;;;;12.60;5.77;;;10.70;99.90;;;;;;5054079;28;20463;-52
2021/11/24 12:25:47;;;;;;;9.90;6.33;;;10.70;99.90;;;;;;5053929;28;20923;-52
2021/11/24 12:28:18;;;;;;;8.43;6.40;;;10.80;99.90;;;;;;5053372;28;20479;-55
2021/11/24 12:31:04;;;;;;;14.67;13.20;;;10.70;99.90;;;;;;5052210;28;20474;-52
2021/11/24 12:33:35;;;;;;;14.47;9.30;;;10.80;99.90;;;;;;5051892;28;20472;-53
2021/11/24 12:36:08;;;;;;;10.70;6.83;;;10.70;99.90;;;;;;5053740;28;20429;-52
2021/11/24 12:38:37;;;;;;;11.70;7.10;;;10.70;99.90;;;;;;5072789;28;20442;-53
2021/11/24 12:41:05;;;;;;;10.30;7.07;;;10.60;99.90;;;;;;5072254;28;20446;-53
2021/11/24 12:43:36;;;;;;;15.70;8.63;;;10.80;99.90;;;;;;5071474;28;20563;-53
2021/11/24 12:46:11;;;;;;;8.10;6.50;;;11.10;99.90;;;;;;5073245;28;20429;-54
2021/11/24 12:48:44;;;;;;;9.83;6.70;;;10.70;99.90;;;;;;5071935;28;20972;-53